Time;durP1;ratioP1;P1;durP2;ratioP2;P2;SDS_P1;SDS_P2;PMS_P1;PMS_P2;Temp;Humidity;BMP_temperature;BMP_pressure;BME280_temperature;BME280_humidity;BME280_pressure;Samples;Min_cycle;Max_cycle;Signal;HPM_P1;HPM_P2
2023/10/29 00:17:41;;;;;;;;;;;;;;;11.68;100;98839.04;;;;-84
2023/10/29 00:36:58;;;;;;;;;;;;;;;12.03;100;98820.64;;;;-83
2023/10/29 00:42:03;;;;;;;;;;;;;;;12.23;100;98819.98;;;;-84
2023/10/29 00:44:44;;;;;;;5.9;2.1;;;;;;;;;;;;;-83
2023/10/29 00:56:08;;;;;;;;;;;;;;;12.29;100;98785.2;;;;-84
2023/10/29 01:01:19;;;;;;;;;;;;;;;12.35;100;98787.96;;;;-83
2023/10/29 01:06:24;;;;;;;;;;;;;;;12.45;100;98788.67;;;;-85
2023/10/29 01:11:24;;;;;;;;;;;;;;;12.42;100;98784.36;;;;-84
2023/10/29 01:33:28;;;;;;;;;;;;;;;12.33;100;98734.89;;;;-76
2023/10/29 01:38:29;;;;;;;;;;;;;;;12.29;100;98744.92;;;;-76
2023/10/29 02:04:07;;;;;;;;;;;;;;;12.42;100;98687.02;;;;-83
2023/10/29 02:09:02;;;;;;;;;;;;;;;12.46;100;98687.71;;;;-83
2023/10/29 02:14:02;;;;;;;;;;;;;;;12.54;100;98680.45;;;;-84
2023/10/29 02:14:36;;;;;;;6;1.4;;;;;;;;;;;;;-84
2023/10/29 02:18:59;;;;;;;;;;;;;;;12.61;100;98687.75;;;;-84
2023/10/29 02:24:01;;;;;;;;;;;;;;;12.68;100;98693.59;;;;-84
2023/10/29 02:29:10;;;;;;;;;;;;;;;;;;;;;
2023/10/29 02:34:11;;;;;;;;;;;;;;;12.79;100;98684.45;;;;-83
2023/10/29 02:39:13;;;;;;;;;;;;;;;12.83;100;98690.66;;;;-83
2023/10/29 02:43:55;;;;;;;;;;;;;;;12.89;100;98675.78;;;;-85
2023/10/29 02:44:33;;;;;;;1.9;0.9;;;;;;;;;;;;;-85
2023/10/29 02:48:59;;;;;;;;;;;;;;;12.98;100;98661.59;;;;-83
2023/10/29 02:53:59;;;;;;;;;;;;;;;12.83;100;98674.36;;;;-83
2023/10/29 03:44:21;;;;;;;;;;;;;;;11.75;100;98733.7;;;;-83
2023/10/29 03:44:57;;;;;;;3.1;0.5;;;;;;;;;;;;;-83
2023/10/29 03:49:01;;;;;;;;;;;;;;;11.81;100;98739.5;;;;-82
2023/10/29 04:04:10;;;;;;;;;;;;;;;11.68;100;98736.28;;;;-85
2023/10/29 04:08:56;;;;;;;;;;;;;;;11.69;100;98737.95;;;;-83
2023/10/29 04:14:42;;;;;;;7.4;1.1;;;;;;;;;;;;;-82
2023/10/29 04:18:58;;;;;;;;;;;;;;;11.6;100;98741.1;;;;-83
2023/10/29 04:23:55;;;;;;;;;;;;;;;11.6;100;98736.52;;;;-83
2023/10/29 04:29:06;;;;;;;;;;;;;;;11.59;100;98741.61;;;;-81
2023/10/29 04:34:01;;;;;;;;;;;;;;;11.58;100;98754.03;;;;-83
2023/10/29 04:38:57;;;;;;;;;;;;;;;11.63;100;98735.66;;;;-84
2023/10/29 04:43:56;;;;;;;;;;;;;;;11.68;100;98747.72;;;;-83
2023/10/29 04:44:40;;;;;;;4.5;1.4;;;;;;;;;;;;;-85
2023/10/29 04:49:00;;;;;;;;;;;;;;;11.78;100;98748.78;;;;-82
2023/10/29 04:54:02;;;;;;;;;;;;;;;11.72;100;98749.03;;;;-83
2023/10/29 04:59:00;;;;;;;;;;;;;;;11.49;100;98752.31;;;;-84
2023/10/29 05:03:58;;;;;;;;;;;;;;;11.22;100;98765.41;;;;-85
2023/10/29 05:09:03;;;;;;;;;;;;;;;10.93;100;98758.88;;;;-83
2023/10/29 05:13:57;;;;;;;;;;;;;;;10.68;100;98759.97;;;;-84
2023/10/29 05:14:32;;;;;;;2.3;0.7;;;;;;;;;;;;;-83
2023/10/29 05:19:03;;;;;;;;;;;;;;;10.7;100;98780.11;;;;-83
2023/10/29 05:23:59;;;;;;;;;;;;;;;10.7;100;98751.98;;;;-83
2023/10/29 05:28:59;;;;;;;;;;;;;;;10.67;100;98732.67;;;;-84
2023/10/29 05:34:05;;;;;;;;;;;;;;;10.68;100;98734.94;;;;-84
2023/10/29 05:38:59;;;;;;;;;;;;;;;10.74;100;98752.55;;;;-83
2023/10/29 05:44:02;;;;;;;;;;;;;;;10.89;100;98757.19;;;;-84
2023/10/29 05:44:38;;;;;;;5.5;1.1;;;;;;;;;;;;;-83
2023/10/29 05:49:05;;;;;;;;;;;;;;;11.02;100;98763.87;;;;-84
2023/10/29 05:54:06;;;;;;;;;;;;;;;11.08;100;98782.41;;;;-83
2023/10/29 05:59:06;;;;;;;;;;;;;;;11.18;100;98791.56;;;;-86
2023/10/29 06:04:09;;;;;;;;;;;;;;;11.19;100;98784;;;;-84
2023/10/29 06:08:59;;;;;;;;;;;;;;;11.24;100;98790.07;;;;-83
2023/10/29 06:13:57;;;;;;;;;;;;;;;11.27;100;98801.27;;;;-83
2023/10/29 06:14:36;;;;;;;7.8;1.1;;;;;;;;;;;;;-84
2023/10/29 06:19:07;;;;;;;;;;;;;;;11.33;100;98808.51;;;;-84
2023/10/29 06:24:19;;;;;;;;;;;;;;;11.1;100;98818.66;;;;-84
2023/10/29 06:29:06;;;;;;;;;;;;;;;11.11;100;98830.41;;;;-84
2023/10/29 06:34:10;;;;;;;;;;;;;;;11.03;100;98850.23;;;;-83
2023/10/29 06:39:12;;;;;;;;;;;;;;;10.95;100;98858.38;;;;-84
2023/10/29 06:44:07;;;;;;;;;;;;;;;10.9;100;98868.02;;;;-85
2023/10/29 06:44:36;;;;;;;8.9;1.2;;;;;;;;;;;;;-84
2023/10/29 06:49:18;;;;;;;;;;;;;;;10.97;100;98873.98;;;;-83
2023/10/29 06:54:09;;;;;;;;;;;;;;;10.97;100;98888.23;;;;-83
2023/10/29 06:59:27;;;;;;;;;;;;;;;10.93;100;98900.2;;;;-84
2023/10/29 08:10:44;;;;;;;;;;;;;;;11.93;100;99019.5;;;;-84
2023/10/29 08:15:10;;;;;;;5.6;1.1;;;;;;;;;;;;;-84
2023/10/29 08:15:43;;;;;;;;;;;;;;;11.96;100;99033.05;;;;-85
2023/10/29 08:20:35;;;;;;;;;;;;;;;12.08;100;99041.55;;;;-85
2023/10/29 08:30:40;;;;;;;;;;;;;;;12.18;100;99059.77;;;;-86
2023/10/29 08:35:41;;;;;;;;;;;;;;;12.28;100;99080.28;;;;-86
2023/10/29 08:40:50;;;;;;;;;;;;;;;12.33;100;99083.05;;;;-87
2023/10/29 08:45:12;;;;;;;5.4;1;;;;;;;;;;;;;-84
2023/10/29 08:45:45;;;;;;;;;;;;;;;12.01;100;99050.34;;;;-85
2023/10/29 08:50:49;;;;;;;;;;;;;;;12.11;100;99100.44;;;;-83
2023/10/29 08:55:42;;;;;;;;;;;;;;;12.47;100;99112.78;;;;-86
2023/10/29 09:00:38;;;;;;;;;;;;;;;12.58;100;99103.93;;;;-84
2023/10/29 09:05:35;;;;;;;;;;;;;;;12.61;98.66602;99108.3;;;;-83
2023/10/29 09:10:26;;;;;;;;;;;;;;;12.64;99.2041;99117.49;;;;-83
2023/10/29 09:14:48;;;;;;;6.1;0.9;;;;;;;;;;;;;-86
2023/10/29 09:15:34;;;;;;;;;;;;;;;12.69;97.16699;99148.27;;;;-84
2023/10/29 09:20:53;;;;;;;;;;;;;;;12.54;98.5166;99155.29;;;;-86
2023/10/29 09:25:24;;;;;;;;;;;;;;;12.4;98.13281;99169.2;;;;-86
2023/10/29 09:30:37;;;;;;;;;;;;;;;12.33;99.70703;99166.83;;;;-85
2023/10/29 09:35:27;;;;;;;;;;;;;;;12.33;100;99174.06;;;;-85
2023/10/29 09:40:40;;;;;;;;;;;;;;;12.34;100;99171.92;;;;-85
2023/10/29 09:44:48;;;;;;;7.5;1;;;;;;;;;;;;;-85
2023/10/29 09:45:27;;;;;;;;;;;;;;;12.41;100;99184.75;;;;-84
2023/10/29 09:50:31;;;;;;;;;;;;;;;12.42;97.9043;99167.06;;;;-85
2023/10/29 09:55:35;;;;;;;;;;;;;;;12.33;96.07129;99182.95;;;;-85
2023/10/29 10:00:25;;;;;;;;;;;;;;;12.32;96.52246;99201.61;;;;-85
2023/10/29 10:05:36;;;;;;;;;;;;;;;12.32;96.45801;99202.55;;;;-85
2023/10/29 10:10:44;;;;;;;;;;;;;;;12.38;95.53906;99198.06;;;;-85
2023/10/29 10:15:59;;;;;;;;;;;;;;;12.38;94.14551;99185.16;;;;-86
2023/10/29 10:20:41;;;;;;;;;;;;;;;12.58;93.37988;99191.81;;;;-85
2023/10/29 10:25:41;;;;;;;;;;;;;;;12.68;93.40332;99183.34;;;;-87
2023/10/29 10:35:38;;;;;;;;;;;;;;;13.13;91.82129;99193.66;;;;-84
2023/10/29 10:40:44;;;;;;;;;;;;;;;13.32;90.44238;99211.04;;;;-85
2023/10/29 10:50:40;;;;;;;;;;;;;;;13.02;89.88184;99178.08;;;;-86
2023/10/29 10:55:33;;;;;;;;;;;;;;;13.14;89.38574;99204.18;;;;-82
2023/10/29 11:00:39;;;;;;;;;;;;;;;13.55;88.48926;99246.46;;;;-83
2023/10/29 11:05:49;;;;;;;;;;;;;;;13.6;88.94336;99244.79;;;;-86
2023/10/29 11:10:33;;;;;;;;;;;;;;;13.99;88.52344;99245.8;;;;-84
2023/10/29 13:03:26;;;;;;;;;;;;;;;14.71;80.1416;99134.05;;;;-74
2023/10/29 13:08:53;;;;;;;;;;;;;;;14.73;80.42578;99133.5;;;;-76
2023/10/29 13:30:01;;;;;;;;;;;;;;;14.19;81.57813;99107.98;;;;-74
2023/10/29 14:03:10;;;;;;;;;;;;;;;;;;;;;
2023/10/29 14:21:31;;;;;;;;;;;;;;;;;;;;;
2023/10/29 14:26:09;;;;;;;;;;;;;;;13.54;85.91992;99087.91;;;;-74
2023/10/29 14:31:29;;;;;;;;;;;;;;;;;;;;;
2023/10/29 15:39:27;;;;;;;;;;;;;;;12.2;100;99053.86;;;;-76
2023/10/29 15:45:31;;;;;;;8.8;2;;;;;;;;;;;;;-76
2023/10/29 15:49:03;;;;;;;;;;;;;;;12.15;100;99050.32;;;;-74
2023/10/29 16:26:51;;;;;;;;;;;;;;;11.9;100;99080.44;;;;-75
2023/10/29 16:45:44;;;;;;;;;;;;;;;;;;;;;
2023/10/29 17:06:00;;;;;;;;;;;;;;;11.49;100;99125.91;;;;-84
2023/10/29 17:15:18;;;;;;;7.8;1.8;;;;;;;;;;;;;-84
2023/10/29 17:21:01;;;;;;;;;;;;;;;11.31;100;99170.84;;;;-83
2023/10/29 17:26:03;;;;;;;;;;;;;;;11.31;100;99182.58;;;;-84
2023/10/29 17:31:14;;;;;;;;;;;;;;;11.12;100;99171.55;;;;-84
2023/10/29 17:35:53;;;;;;;;;;;;;;;10.82;100;99171.97;;;;-85
2023/10/29 17:41:04;;;;;;;;;;;;;;;10.62;100;99179.83;;;;-83
2023/10/29 17:45:39;;;;;;;3.9;0.9;;;;;;;;;;;;;-85
2023/10/29 17:45:59;;;;;;;;;;;;;;;10.21;100;99136.16;;;;-84
2023/10/29 17:50:59;;;;;;;;;;;;;;;10.4;100;99198.78;;;;-85
2023/10/29 17:56:00;;;;;;;;;;;;;;;10.34;100;99190.32;;;;-85
2023/10/29 18:01:07;;;;;;;;;;;;;;;10.31;100;99195.66;;;;-84
2023/10/29 18:06:05;;;;;;;;;;;;;;;10.32;100;99208.88;;;;-84
2023/10/29 18:10:53;;;;;;;;;;;;;;;10.35;100;99221.17;;;;-84
2023/10/29 18:15:26;;;;;;;12.8;1.4;;;;;;;;;;;;;-84
2023/10/29 18:16:03;;;;;;;;;;;;;;;10.35;100;99213.65;;;;-85
2023/10/29 18:20:59;;;;;;;;;;;;;;;10.37;100;99224.13;;;;-84
2023/10/29 18:26:07;;;;;;;;;;;;;;;10.44;100;99228.98;;;;-84
2023/10/29 18:30:57;;;;;;;;;;;;;;;10.39;100;99238;;;;-86
2023/10/29 18:36:05;;;;;;;;;;;;;;;10.36;100;99243.25;;;;-83
2023/10/29 18:41:02;;;;;;;;;;;;;;;10.37;100;99248.15;;;;-84
2023/10/29 18:45:14;;;;;;;8.7;1.3;;;;;;;;;;;;;-84
2023/10/29 18:45:51;;;;;;;;;;;;;;;10.44;100;99274.52;;;;-83
